createdAt,value
2023-04-25T00:01:57.682Z,93.35
2023-04-25T00:04:24.594Z,93.62
2023-04-25T00:06:51.219Z,93.22
2023-04-25T00:09:17.594Z,91.67
2023-04-25T00:11:44.045Z,92.88
2023-04-25T00:14:10.930Z,92.68
2023-04-25T00:16:37.783Z,92.43
2023-04-25T00:19:04.386Z,92.17
2023-04-25T00:21:32.442Z,92.35
2023-04-25T00:23:59.421Z,91.38
2023-04-25T00:26:26.309Z,91.61
2023-04-25T00:28:52.954Z,92.09
2023-04-25T00:31:19.482Z,92.39
2023-04-25T00:33:46.100Z,93.15
2023-04-25T00:36:12.708Z,93.48
2023-04-25T00:38:39.282Z,93.10
2023-04-25T00:41:08.396Z,93.31
2023-04-25T00:43:34.887Z,93.62
2023-04-25T00:46:02.250Z,92.80
2023-04-25T00:48:29.144Z,92.91
2023-04-25T00:50:58.642Z,93.18
2023-04-25T00:53:28.766Z,92.89
2023-04-25T00:55:56.093Z,93.44
2023-04-25T00:58:23.171Z,93.40
2023-04-25T01:00:52.889Z,93.18
2023-04-25T01:03:23.541Z,93.41
2023-04-25T01:05:51.374Z,92.89
2023-04-25T01:08:17.847Z,92.65
2023-04-25T01:10:44.317Z,92.18
2023-04-25T01:13:10.875Z,91.81
2023-04-25T01:15:37.381Z,91.96
2023-04-25T01:18:06.292Z,92.22
2023-04-25T01:20:34.010Z,92.48
2023-04-25T01:23:01.418Z,92.22
2023-04-25T01:25:28.425Z,92.42
2023-04-25T01:27:56.825Z,92.62
2023-04-25T01:30:23.355Z,92.74
2023-04-25T01:32:50.324Z,94.11
2023-04-25T01:35:16.781Z,94.31
2023-04-25T01:37:44.052Z,95.55
2023-04-25T01:40:13.666Z,96.54
2023-04-25T01:42:44.068Z,97.58
2023-04-25T01:45:11.998Z,98.53
2023-04-25T01:47:40.931Z,99.85
2023-04-25T01:50:08.764Z,99.92
2023-04-25T01:52:36.714Z,100.00
2023-04-25T01:55:03.735Z,100.00
2023-04-25T01:57:33.046Z,100.00
2023-04-25T02:00:03.842Z,100.00
2023-04-25T02:02:39.750Z,100.00
2023-04-25T02:05:14.564Z,100.00
2023-04-25T02:07:42.987Z,98.84
2023-04-25T02:10:10.122Z,96.65
2023-04-25T02:12:45.298Z,96.76
2023-04-25T02:15:20.165Z,96.24
2023-04-25T02:17:56.227Z,95.83
2023-04-25T02:20:24.181Z,96.22
2023-04-25T02:22:51.008Z,96.02
2023-04-25T02:25:19.041Z,96.14
2023-04-25T02:27:47.458Z,97.40
2023-04-25T02:30:14.272Z,96.07
2023-04-25T02:32:41.121Z,97.16
2023-04-25T02:35:09.722Z,96.87
2023-04-25T02:37:37.560Z,97.44
2023-04-25T02:40:05.095Z,96.34
2023-04-25T02:42:32.173Z,96.70
2023-04-25T02:44:58.845Z,97.82
2023-04-25T02:47:27.248Z,97.50
2023-04-25T02:49:53.800Z,98.29
2023-04-25T02:52:20.412Z,99.08
2023-04-25T02:54:53.842Z,98.88
2023-04-25T02:57:20.515Z,98.73
2023-04-25T02:59:47.164Z,98.90
2023-04-25T03:02:13.774Z,98.73
2023-04-25T03:04:40.788Z,99.79
2023-04-25T03:07:07.386Z,99.83
2023-04-25T03:09:33.865Z,99.99
2023-04-25T03:12:02.347Z,100.00
2023-04-25T03:14:28.831Z,99.90
2023-04-25T03:16:55.894Z,98.61
2023-04-25T03:19:22.396Z,98.35
2023-04-25T03:21:49.060Z,98.10
2023-04-25T03:24:16.106Z,98.21
2023-04-25T03:26:42.585Z,96.85
2023-04-25T03:29:09.498Z,97.49
2023-04-25T03:31:37.560Z,97.25
2023-04-25T03:34:04.072Z,96.85
2023-04-25T03:36:30.478Z,97.32
2023-04-25T03:38:57.113Z,96.83
2023-04-25T03:41:24.374Z,96.46
2023-04-25T03:44:02.377Z,95.48
2023-04-25T03:46:28.882Z,95.56
2023-04-25T03:48:56.016Z,94.21
2023-04-25T03:51:28.819Z,93.90
2023-04-25T03:53:55.559Z,93.10
2023-04-25T03:56:31.310Z,92.35
2023-04-25T03:59:05.649Z,92.72
2023-04-25T04:01:32.638Z,92.46
2023-04-25T04:03:59.372Z,92.05
2023-04-25T04:06:27.677Z,91.66
2023-04-25T04:09:02.592Z,91.42
2023-04-25T04:11:32.319Z,92.02
2023-04-25T04:13:58.884Z,90.45
2023-04-25T04:16:25.993Z,91.02
2023-04-25T04:18:52.785Z,91.25
2023-04-25T04:21:19.155Z,90.59
2023-04-25T04:23:45.832Z,91.04
2023-04-25T04:26:13.883Z,90.88
2023-04-25T04:28:57.419Z,91.41
2023-04-25T04:31:40.908Z,90.88
2023-04-25T04:34:07.406Z,90.71
2023-04-25T04:36:35.300Z,90.85
2023-04-25T04:39:02.925Z,89.37
2023-04-25T04:41:35.821Z,89.99
2023-04-25T04:44:15.700Z,88.83
2023-04-25T04:46:47.772Z,88.64
2023-04-25T04:49:46.690Z,87.20
2023-04-25T04:52:29.852Z,86.65
2023-04-25T04:55:05.362Z,85.66
2023-04-25T04:57:40.815Z,86.32
2023-04-25T05:00:42.662Z,85.75
2023-04-25T05:03:28.983Z,85.51
2023-04-25T05:06:15.210Z,86.55
2023-04-25T05:08:53.649Z,85.92
2023-04-25T05:11:36.843Z,86.72
2023-04-25T05:14:24.279Z,86.59
2023-04-25T05:17:26.543Z,85.45
2023-04-25T05:20:03.714Z,86.19
2023-04-25T05:22:44.118Z,85.63
2023-04-25T05:25:18.729Z,85.83
2023-04-25T05:28:10.055Z,85.80
2023-04-25T05:30:39.237Z,85.54
2023-04-25T05:33:17.798Z,84.31
2023-04-25T05:35:45.654Z,84.48
2023-04-25T05:38:12.283Z,84.35
2023-04-25T05:41:05.039Z,83.70
2023-04-25T05:43:50.498Z,83.50
2023-04-25T05:46:27.234Z,83.25
2023-04-25T05:49:18.961Z,83.10
2023-04-25T05:52:04.404Z,83.89
2023-04-25T05:54:49.358Z,84.99
2023-04-25T05:57:26.200Z,84.22
2023-04-25T05:59:54.604Z,82.40
2023-04-25T06:02:22.939Z,82.95
2023-04-25T06:04:52.046Z,82.35
2023-04-25T06:07:19.791Z,82.25
2023-04-25T06:09:46.417Z,81.67
2023-04-25T06:12:13.020Z,81.99
2023-04-25T06:14:39.799Z,81.93
2023-04-25T06:17:09.376Z,81.98
2023-04-25T06:19:37.192Z,81.43
2023-04-25T06:22:03.634Z,80.22
2023-04-25T06:24:31.555Z,80.82
2023-04-25T06:26:58.175Z,81.76
2023-04-25T06:29:24.864Z,80.90
2023-04-25T06:31:51.434Z,80.74
2023-04-25T06:34:18.805Z,81.19
2023-04-25T06:36:45.889Z,81.89
2023-04-25T06:39:15.472Z,80.48
2023-04-25T06:41:42.036Z,78.88
2023-04-25T06:44:16.198Z,79.23
2023-04-25T06:46:53.269Z,78.02
2023-04-25T06:49:20.271Z,79.57
2023-04-25T06:51:46.843Z,79.26
2023-04-25T06:54:14.822Z,77.21
2023-04-25T06:56:53.008Z,77.63
2023-04-25T06:59:19.879Z,77.07
2023-04-25T07:01:46.829Z,75.46
2023-04-25T07:04:21.204Z,75.99
2023-04-25T07:06:55.931Z,75.96
2023-04-25T07:09:31.211Z,76.00
2023-04-25T07:11:59.663Z,75.22
2023-04-25T07:14:27.240Z,75.22
2023-04-25T07:16:54.527Z,75.72
2023-04-25T07:19:21.049Z,75.40
2023-04-25T07:21:47.802Z,75.05
2023-04-25T07:24:14.185Z,72.64
2023-04-25T07:26:45.852Z,73.42
2023-04-25T07:29:22.279Z,73.56
2023-04-25T07:31:48.985Z,72.97
2023-04-25T07:34:15.533Z,72.02
2023-04-25T07:36:42.428Z,72.39
2023-04-25T07:39:10.093Z,69.51
2023-04-25T07:41:36.736Z,71.00
2023-04-25T07:44:03.740Z,70.95
2023-04-25T07:46:31.852Z,70.02
2023-04-25T07:48:58.669Z,68.83
2023-04-25T07:51:25.637Z,68.06
2023-04-25T07:53:54.077Z,68.45
2023-04-25T07:56:21.490Z,66.56
2023-04-25T07:58:49.374Z,66.47
2023-04-25T08:01:18.469Z,65.17
2023-04-25T08:03:53.045Z,65.64
2023-04-25T08:06:30.574Z,63.99
2023-04-25T08:09:12.627Z,62.22
2023-04-25T08:11:42.710Z,61.53
2023-04-25T08:14:12.434Z,61.46
2023-04-25T08:16:40.924Z,60.58
2023-04-25T08:19:07.333Z,60.88
2023-04-25T08:21:34.494Z,60.78
2023-04-25T08:24:04.936Z,60.75
2023-04-25T08:26:35.727Z,59.08
2023-04-25T08:29:06.446Z,58.33
2023-04-25T08:31:33.618Z,59.23
2023-04-25T08:34:02.715Z,59.74
2023-04-25T08:36:39.929Z,60.22
2023-04-25T08:39:29.774Z,60.14
2023-04-25T08:42:29.962Z,60.42
2023-04-25T08:44:57.293Z,59.16
2023-04-25T08:47:29.434Z,57.84
2023-04-25T08:49:59.059Z,57.44
2023-04-25T08:52:29.078Z,56.25
2023-04-25T08:54:56.425Z,57.02
2023-04-25T08:57:24.016Z,57.09
2023-04-25T08:59:52.919Z,57.43
2023-04-25T09:02:21.694Z,57.74
2023-04-25T09:04:50.651Z,57.74
2023-04-25T09:07:19.576Z,57.22
2023-04-25T09:09:46.229Z,57.13
2023-04-25T09:12:15.391Z,54.44
2023-04-25T09:14:43.354Z,50.75
2023-04-25T09:17:18.886Z,50.84
2023-04-25T09:19:52.046Z,52.37
2023-04-25T09:22:37.810Z,52.06
2023-04-25T09:25:09.450Z,51.59
2023-04-25T09:27:37.371Z,50.22
2023-04-25T09:30:17.175Z,50.82
2023-04-25T09:32:59.431Z,51.80
2023-04-25T09:35:27.296Z,49.60
2023-04-25T09:37:55.085Z,50.52
2023-04-25T09:40:46.135Z,48.82
2023-04-25T09:43:23.535Z,50.89
2023-04-25T09:45:52.626Z,50.59
2023-04-25T09:48:23.392Z,52.20
2023-04-25T09:51:14.488Z,52.12
2023-04-25T09:53:47.274Z,50.66
2023-04-25T09:56:23.322Z,52.76
2023-04-25T09:58:54.703Z,55.11
2023-04-25T10:01:22.558Z,57.39
2023-04-25T10:04:12.222Z,56.78
2023-04-25T10:06:56.185Z,55.91
2023-04-25T10:09:26.595Z,56.23
2023-04-25T10:11:53.932Z,56.40
2023-04-25T10:14:20.597Z,56.43
2023-04-25T10:16:48.191Z,56.04
2023-04-25T10:19:15.519Z,57.24
2023-04-25T10:21:52.160Z,56.14
2023-04-25T10:24:20.278Z,55.58
2023-04-25T10:26:48.164Z,54.63
2023-04-25T10:29:22.834Z,53.66
2023-04-25T10:31:49.309Z,54.12
2023-04-25T10:34:17.922Z,53.56
2023-04-25T10:36:50.784Z,55.24
2023-04-25T10:39:24.044Z,56.13
2023-04-25T10:41:58.951Z,56.80
2023-04-25T10:44:29.904Z,56.52
2023-04-25T10:46:58.815Z,56.31
2023-04-25T10:49:39.091Z,54.36
2023-04-25T10:52:24.836Z,52.60
2023-04-25T10:54:56.566Z,50.72
2023-04-25T10:57:42.968Z,51.42
2023-04-25T11:00:13.086Z,52.73
2023-04-25T11:02:48.370Z,53.74
2023-04-25T11:05:30.181Z,53.64
2023-04-25T11:08:07.866Z,54.26
2023-04-25T11:10:38.129Z,54.53
2023-04-25T11:13:06.037Z,55.94
2023-04-25T11:15:32.691Z,57.62
2023-04-25T11:17:59.336Z,59.21
2023-04-25T11:20:29.211Z,59.76
2023-04-25T11:22:59.390Z,60.86
2023-04-25T11:25:26.747Z,61.87
2023-04-25T11:27:58.094Z,60.69
2023-04-25T11:30:26.631Z,59.31
2023-04-25T11:32:53.369Z,59.53
2023-04-25T11:35:22.236Z,61.03
2023-04-25T11:37:48.964Z,60.18
2023-04-25T11:40:15.714Z,59.65
2023-04-25T11:42:46.912Z,61.24
2023-04-25T11:45:14.353Z,58.50
2023-04-25T11:47:41.035Z,58.35
2023-04-25T11:50:09.025Z,58.52
2023-04-25T11:52:43.877Z,57.32
2023-04-25T11:55:21.058Z,52.69
2023-04-25T11:57:52.857Z,50.96
2023-04-25T12:00:21.876Z,47.91
2023-04-25T12:02:53.112Z,47.60
2023-04-25T12:05:31.873Z,47.18
2023-04-25T12:08:10.126Z,47.44
2023-04-25T12:10:38.833Z,46.68
2023-04-25T12:13:22.819Z,49.36
2023-04-25T12:15:49.964Z,53.20
2023-04-25T12:18:20.738Z,55.35
2023-04-25T12:20:47.501Z,56.25
2023-04-25T12:23:14.040Z,58.19
2023-04-25T12:25:42.905Z,58.92
2023-04-25T12:28:20.895Z,59.56
2023-04-25T12:31:06.625Z,61.41
2023-04-25T12:33:34.830Z,63.15
2023-04-25T12:36:06.422Z,65.23
2023-04-25T12:38:37.445Z,65.95
2023-04-25T12:41:03.868Z,66.13
2023-04-25T12:43:30.405Z,66.29
2023-04-25T12:45:57.969Z,67.70
2023-04-25T12:48:24.977Z,69.82
2023-04-25T12:50:52.789Z,72.34
2023-04-25T12:53:21.365Z,73.26
2023-04-25T12:55:48.774Z,75.78
2023-04-25T12:58:16.718Z,77.20
2023-04-25T13:00:43.879Z,78.18
2023-04-25T13:03:12.092Z,80.41
2023-04-25T13:05:39.393Z,80.86
2023-04-25T13:08:05.907Z,81.04
2023-04-25T13:10:32.381Z,80.00
2023-04-25T13:12:58.777Z,79.59
2023-04-25T13:15:25.908Z,79.25
2023-04-25T13:17:52.466Z,74.02
2023-04-25T13:20:19.855Z,72.08
2023-04-25T13:22:46.853Z,69.24
2023-04-25T13:25:13.286Z,66.69
2023-04-25T13:27:41.853Z,63.06
2023-04-25T13:30:08.840Z,62.86
2023-04-25T13:32:39.202Z,62.86
2023-04-25T13:35:10.474Z,65.04
2023-04-25T13:37:37.749Z,66.66
2023-04-25T13:40:06.545Z,68.77
2023-04-25T13:42:33.351Z,70.14
2023-04-25T13:44:59.900Z,70.01
2023-04-25T13:47:27.755Z,71.93
2023-04-25T13:49:55.376Z,68.96
2023-04-25T13:52:21.896Z,68.48
2023-04-25T13:54:48.353Z,64.67
2023-04-25T13:57:14.774Z,64.36
2023-04-25T13:59:41.853Z,66.12
2023-04-25T14:02:08.524Z,66.37
2023-04-25T14:04:35.021Z,65.90
2023-04-25T14:07:02.209Z,63.33
2023-04-25T14:09:29.002Z,62.42
2023-04-25T14:11:56.165Z,59.91
2023-04-25T14:14:23.223Z,57.73
2023-04-25T14:16:51.174Z,57.04
2023-04-25T14:19:20.292Z,53.91
2023-04-25T14:21:48.863Z,51.66
2023-04-25T14:24:15.754Z,51.92
2023-04-25T14:26:43.371Z,51.34
2023-04-25T14:29:12.506Z,51.05
2023-04-25T14:31:40.406Z,49.78
2023-04-25T14:34:06.978Z,51.62
2023-04-25T14:36:34.527Z,51.78
2023-04-25T14:39:01.044Z,52.83
2023-04-25T14:41:28.033Z,53.23
2023-04-25T14:43:54.554Z,54.08
2023-04-25T14:46:23.134Z,55.54
2023-04-25T14:48:50.312Z,59.31
2023-04-25T14:51:16.804Z,63.74
2023-04-25T14:53:43.359Z,65.49
2023-04-25T14:56:09.920Z,66.91
2023-04-25T14:58:36.466Z,67.17
2023-04-25T15:01:03.146Z,66.07
2023-04-25T15:03:29.873Z,64.58
2023-04-25T15:05:56.746Z,64.43
2023-04-25T15:08:23.342Z,62.93
2023-04-25T15:10:50.272Z,58.57
2023-04-25T15:13:17.001Z,57.07
2023-04-25T15:15:43.418Z,55.25
2023-04-25T15:18:09.870Z,52.88
2023-04-25T15:20:36.435Z,52.03
2023-04-25T15:23:04.389Z,51.35
2023-04-25T15:25:30.936Z,52.50
2023-04-25T15:27:57.673Z,53.02
2023-04-25T15:30:24.228Z,53.47
2023-04-25T15:32:50.684Z,64.19
2023-04-25T15:35:17.224Z,70.10
2023-04-25T15:37:44.025Z,72.18
2023-04-25T15:40:14.538Z,72.96
2023-04-25T15:42:52.638Z,73.14
2023-04-25T15:45:21.510Z,70.16
2023-04-25T15:47:48.302Z,70.51
2023-04-25T15:50:15.967Z,68.64
2023-04-25T15:52:43.493Z,68.17
2023-04-25T15:55:10.614Z,65.40
2023-04-25T15:57:37.297Z,66.10
2023-04-25T16:00:11.273Z,64.39
2023-04-25T16:02:42.336Z,59.43
2023-04-25T16:05:11.173Z,60.07
2023-04-25T16:07:39.440Z,60.63
2023-04-25T16:10:06.481Z,58.34
2023-04-25T16:12:33.139Z,58.49
2023-04-25T16:14:59.572Z,58.66
2023-04-25T16:17:28.012Z,58.12
2023-04-25T16:19:54.485Z,59.76
2023-04-25T16:22:21.302Z,58.95
2023-04-25T16:24:48.126Z,59.19
2023-04-25T16:27:14.929Z,59.43
2023-04-25T16:29:41.804Z,59.38
2023-04-25T16:32:08.464Z,60.50
2023-04-25T16:34:34.919Z,60.92
2023-04-25T16:37:02.243Z,59.34
2023-04-25T16:39:28.868Z,59.47
2023-04-25T16:41:55.391Z,59.44
2023-04-25T16:44:21.903Z,58.45
2023-04-25T16:46:48.428Z,58.16
2023-04-25T16:49:14.876Z,61.35
2023-04-25T16:51:41.356Z,61.38
2023-04-25T16:54:07.936Z,59.04
2023-04-25T16:56:34.419Z,56.50
2023-04-25T16:59:00.850Z,54.21
2023-04-25T17:01:27.992Z,52.89
2023-04-25T17:03:54.610Z,52.33
2023-04-25T17:06:21.286Z,52.44
2023-04-25T17:08:48.007Z,52.43
2023-04-25T17:11:14.483Z,50.00
2023-04-25T17:13:43.341Z,50.09
2023-04-25T17:16:11.793Z,49.94
2023-04-25T17:18:38.649Z,49.37
2023-04-25T17:21:06.093Z,49.87
2023-04-25T17:23:32.756Z,49.31
2023-04-25T17:25:59.442Z,50.17
2023-04-25T17:28:26.390Z,50.99
2023-04-25T17:30:52.958Z,51.12
2023-04-25T17:33:19.450Z,51.97
2023-04-25T17:35:46.150Z,51.99
2023-04-25T17:38:14.723Z,53.12
2023-04-25T17:40:41.203Z,52.28
2023-04-25T17:43:07.712Z,52.81
2023-04-25T17:45:34.710Z,52.78
2023-04-25T17:48:03.712Z,52.95
2023-04-25T17:50:31.215Z,52.26
2023-04-25T17:52:58.255Z,52.36
2023-04-25T17:55:25.015Z,52.18
2023-04-25T17:57:51.677Z,53.32
2023-04-25T18:00:18.560Z,53.46
2023-04-25T18:02:53.587Z,54.15
2023-04-25T18:05:20.295Z,54.58
2023-04-25T18:07:47.132Z,55.18
2023-04-25T18:10:14.451Z,55.80
2023-04-25T18:12:40.874Z,55.65
2023-04-25T18:15:07.916Z,56.70
2023-04-25T18:17:39.862Z,57.72
2023-04-25T18:20:10.230Z,58.58
2023-04-25T18:22:37.930Z,59.87
2023-04-25T18:25:05.689Z,60.52
2023-04-25T18:27:32.844Z,61.73
2023-04-25T18:29:59.706Z,62.35
2023-04-25T18:32:28.399Z,61.93
2023-04-25T18:34:55.479Z,61.80
2023-04-25T18:37:22.240Z,62.00
2023-04-25T18:39:49.179Z,62.76
2023-04-25T18:42:16.439Z,62.71
2023-04-25T18:44:43.467Z,63.20
2023-04-25T18:47:13.185Z,62.92
2023-04-25T18:49:40.482Z,62.74
2023-04-25T18:52:10.586Z,63.17
2023-04-25T18:54:37.295Z,63.54
2023-04-25T18:57:04.226Z,63.75
2023-04-25T18:59:31.551Z,63.27
2023-04-25T19:01:58.238Z,62.90
2023-04-25T19:04:24.896Z,63.34
2023-04-25T19:06:52.159Z,62.83
2023-04-25T19:09:18.588Z,62.59
2023-04-25T19:11:45.497Z,62.46
2023-04-25T19:14:13.967Z,62.24
2023-04-25T19:16:40.562Z,61.68
2023-04-25T19:19:09.653Z,61.57
2023-04-25T19:21:36.374Z,60.99
2023-04-25T19:24:05.007Z,62.05
2023-04-25T19:26:31.669Z,61.70
2023-04-25T19:29:09.969Z,61.80
2023-04-25T19:31:37.842Z,61.98
2023-04-25T19:34:05.711Z,61.32
2023-04-25T19:36:32.425Z,61.65
2023-04-25T19:39:03.673Z,62.29
2023-04-25T19:41:31.659Z,62.75
2023-04-25T19:44:00.826Z,62.88
2023-04-25T19:46:27.739Z,63.35
2023-04-25T19:48:54.590Z,63.65
2023-04-25T19:51:21.047Z,64.57
2023-04-25T19:53:47.504Z,64.46
2023-04-25T19:56:14.000Z,64.76
2023-04-25T19:58:40.503Z,65.76
2023-04-25T20:01:09.087Z,66.18
2023-04-25T20:03:35.805Z,66.53
2023-04-25T20:06:02.757Z,66.37
2023-04-25T20:08:29.215Z,66.76
2023-04-25T20:10:55.653Z,67.53
2023-04-25T20:13:22.689Z,67.69
2023-04-25T20:15:49.470Z,67.76
2023-04-25T20:18:15.865Z,68.76
2023-04-25T20:20:42.302Z,68.77
2023-04-25T20:23:08.764Z,68.74
2023-04-25T20:25:35.581Z,69.09
2023-04-25T20:28:02.424Z,69.97
2023-04-25T20:30:29.284Z,70.76
2023-04-25T20:32:56.587Z,72.13
2023-04-25T20:35:23.165Z,71.93
2023-04-25T20:37:50.810Z,71.95
2023-04-25T20:40:17.231Z,72.50
2023-04-25T20:42:43.634Z,72.54
2023-04-25T20:45:13.363Z,72.58
2023-04-25T20:47:41.036Z,71.43
2023-04-25T20:50:08.369Z,71.33
2023-04-25T20:52:37.147Z,70.85
2023-04-25T20:55:03.742Z,70.65
2023-04-25T20:57:30.262Z,70.67
2023-04-25T20:59:57.174Z,70.67
2023-04-25T21:02:24.246Z,71.13
2023-04-25T21:04:51.711Z,70.56
2023-04-25T21:07:18.123Z,70.63
2023-04-25T21:09:45.547Z,71.18
2023-04-25T21:12:12.423Z,71.34
2023-04-25T21:14:38.958Z,71.56
2023-04-25T21:17:05.592Z,71.88
2023-04-25T21:19:32.247Z,72.17
2023-04-25T21:21:59.207Z,72.77
2023-04-25T21:24:27.226Z,73.09
2023-04-25T21:26:53.652Z,73.33
2023-04-25T21:29:20.218Z,73.14
2023-04-25T21:31:46.876Z,74.07
2023-04-25T21:34:13.524Z,73.97
2023-04-25T21:36:41.269Z,75.02
2023-04-25T21:39:07.937Z,75.27
2023-04-25T21:41:34.348Z,75.47
2023-04-25T21:44:00.987Z,75.42
2023-04-25T21:46:27.562Z,75.15
2023-04-25T21:48:54.633Z,76.05
2023-04-25T21:51:21.422Z,76.29
2023-04-25T21:53:48.024Z,76.26
2023-04-25T21:56:14.562Z,76.60
2023-04-25T21:58:41.017Z,76.89
2023-04-25T22:01:07.448Z,76.96
2023-04-25T22:03:34.216Z,77.37
2023-04-25T22:06:02.257Z,77.39
2023-04-25T22:08:28.712Z,77.23
2023-04-25T22:10:56.183Z,77.73
2023-04-25T22:13:22.783Z,77.53
2023-04-25T22:15:49.444Z,77.77
2023-04-25T22:18:16.246Z,77.51
2023-04-25T22:20:44.168Z,77.76
2023-04-25T22:23:12.056Z,77.98
2023-04-25T22:25:38.657Z,78.60
2023-04-25T22:28:05.224Z,78.73
2023-04-25T22:30:32.385Z,79.23
2023-04-25T22:32:59.318Z,79.30
2023-04-25T22:35:26.137Z,79.07
2023-04-25T22:37:52.992Z,79.40
2023-04-25T22:40:19.412Z,78.72
2023-04-25T22:42:46.126Z,79.50
2023-04-25T22:45:12.774Z,80.34
2023-04-25T22:47:40.375Z,80.74
2023-04-25T22:50:12.134Z,80.71
2023-04-25T22:52:38.963Z,80.95
2023-04-25T22:55:06.402Z,81.54
2023-04-25T22:57:33.052Z,81.57
2023-04-25T22:59:59.603Z,81.99
2023-04-25T23:02:27.339Z,82.96
2023-04-25T23:04:55.034Z,83.22
2023-04-25T23:07:21.564Z,82.72
2023-04-25T23:09:48.352Z,83.46
2023-04-25T23:12:18.432Z,83.54
2023-04-25T23:14:49.259Z,83.29
2023-04-25T23:17:16.078Z,84.12
2023-04-25T23:19:42.474Z,83.89
2023-04-25T23:22:09.376Z,84.15
2023-04-25T23:24:37.613Z,83.54
2023-04-25T23:27:04.104Z,84.04
2023-04-25T23:29:33.208Z,83.89
2023-04-25T23:32:01.318Z,83.41
2023-04-25T23:34:31.720Z,83.64
2023-04-25T23:37:01.150Z,83.57
2023-04-25T23:39:28.342Z,83.63
2023-04-25T23:41:54.985Z,83.66
2023-04-25T23:44:22.134Z,83.78
2023-04-25T23:46:48.915Z,84.26
2023-04-25T23:49:15.469Z,84.57
2023-04-25T23:51:41.945Z,84.86
2023-04-25T23:54:08.424Z,84.95
2023-04-25T23:56:34.796Z,84.85
2023-04-25T23:59:02.324Z,84.91
